createdAt,value
2019-02-09T00:00:17.986Z,6.70
2019-02-09T00:01:17.995Z,6.50
2019-02-09T00:02:17.963Z,6.70
2019-02-09T00:03:17.952Z,6.40
2019-02-09T00:04:17.950Z,7.90
2019-02-09T00:05:17.932Z,5.70
2019-02-09T00:06:17.929Z,7.70
2019-02-09T00:07:17.907Z,5.20
2019-02-09T00:08:17.894Z,7.80
2019-02-09T00:09:17.886Z,6.10
2019-02-09T00:10:17.899Z,7.20
2019-02-09T00:11:17.874Z,6.10
2019-02-09T00:12:17.870Z,5.30
2019-02-09T00:13:17.840Z,7.50
2019-02-09T00:14:17.833Z,7.40
2019-02-09T00:15:17.817Z,6.00
2019-02-09T00:16:17.829Z,5.20
2019-02-09T00:17:17.805Z,5.40
2019-02-09T00:18:17.783Z,5.50
2019-02-09T00:19:17.774Z,7.60
2019-02-09T00:20:17.763Z,5.00
2019-02-09T00:21:17.771Z,4.60
2019-02-09T00:22:17.741Z,6.40
2019-02-09T00:23:17.727Z,4.70
2019-02-09T00:24:17.721Z,5.10
2019-02-09T00:25:17.704Z,6.20
2019-02-09T00:26:17.707Z,4.40
2019-02-09T00:27:17.683Z,5.80
2019-02-09T00:28:17.676Z,6.60
2019-02-09T00:29:17.660Z,5.70
2019-02-09T00:30:17.648Z,4.70
2019-02-09T00:31:17.649Z,5.90
2019-02-09T00:32:17.630Z,5.80
2019-02-09T00:33:17.615Z,5.20
2019-02-09T00:34:17.604Z,4.90
2019-02-09T00:35:17.594Z,4.40
2019-02-09T00:36:17.591Z,5.10
2019-02-09T00:37:17.571Z,4.00
2019-02-09T00:38:17.562Z,5.50
2019-02-09T00:39:17.547Z,6.60
2019-02-09T00:40:17.536Z,5.00
2019-02-09T00:41:17.558Z,5.90
2019-02-09T00:42:17.517Z,5.10
2019-02-09T00:43:17.510Z,6.30
2019-02-09T00:44:17.493Z,5.20
2019-02-09T00:45:17.480Z,4.50
2019-02-09T00:46:17.479Z,5.60
2019-02-09T00:47:17.457Z,3.30
2019-02-09T00:48:17.445Z,5.80
2019-02-09T00:49:17.435Z,3.80
2019-02-09T00:50:17.422Z,5.40
2019-02-09T00:51:17.449Z,6.90
2019-02-09T00:52:17.401Z,5.00
2019-02-09T00:53:17.392Z,4.50
2019-02-09T00:54:17.389Z,5.00
2019-02-09T00:55:17.366Z,3.70
2019-02-09T00:56:17.358Z,5.00
2019-02-09T00:57:17.359Z,3.20
2019-02-09T00:58:17.335Z,5.30
2019-02-09T00:59:17.323Z,5.90
2019-02-09T01:00:17.316Z,4.60
2019-02-09T01:01:17.304Z,5.90
2019-02-09T01:02:17.315Z,4.90
2019-02-09T01:03:17.295Z,4.30
2019-02-09T01:04:17.269Z,4.20
2019-02-09T01:05:17.255Z,5.30
2019-02-09T01:06:17.243Z,5.30
2019-02-09T01:07:17.246Z,5.20
2019-02-09T01:08:17.223Z,4.10
2019-02-09T01:09:17.210Z,4.90
2019-02-09T01:10:17.218Z,5.00
2019-02-09T01:11:17.188Z,6.10
2019-02-09T01:12:17.193Z,6.20
2019-02-09T01:13:17.166Z,3.60
2019-02-09T01:14:17.161Z,4.70
2019-02-09T01:15:17.147Z,4.90
2019-02-09T01:16:17.134Z,4.60
2019-02-09T01:17:17.131Z,4.30
2019-02-09T01:18:17.111Z,4.70
2019-02-09T01:19:17.105Z,4.20
2019-02-09T01:20:17.089Z,4.80
2019-02-09T01:21:17.074Z,4.60
2019-02-09T01:22:17.078Z,5.20
2019-02-09T01:23:17.056Z,5.00
2019-02-09T01:24:17.040Z,5.10
2019-02-09T01:25:17.032Z,4.30
2019-02-09T01:26:17.023Z,6.30
2019-02-09T01:27:17.035Z,4.90
2019-02-09T01:28:17.008Z,4.70
2019-02-09T01:29:16.984Z,4.60
2019-02-09T01:30:16.976Z,4.30
2019-02-09T01:31:16.981Z,5.10
2019-02-09T01:32:16.965Z,5.20
2019-02-09T01:33:16.938Z,4.90
2019-02-09T01:34:16.946Z,4.20
2019-02-09T01:35:16.922Z,5.60
2019-02-09T01:36:16.910Z,5.00
2019-02-09T01:37:16.919Z,5.50
2019-02-09T01:38:16.882Z,5.20
2019-02-09T01:39:16.872Z,8.10
2019-02-09T01:40:16.861Z,6.60
2019-02-09T01:41:16.853Z,5.30
2019-02-09T01:42:16.847Z,3.80
2019-02-09T01:43:16.839Z,5.80
2019-02-09T01:44:16.815Z,5.60
2019-02-09T01:45:16.813Z,6.30
2019-02-09T01:46:16.797Z,6.80
2019-02-09T01:47:16.785Z,5.30
2019-02-09T01:48:16.782Z,4.70
2019-02-09T01:49:16.760Z,6.40
2019-02-09T01:50:16.756Z,5.60
2019-02-09T01:51:16.742Z,5.60
2019-02-09T01:52:16.725Z,4.70
2019-02-09T01:53:16.724Z,4.30
2019-02-09T01:54:16.703Z,4.40
2019-02-09T01:55:16.694Z,4.60
2019-02-09T01:56:16.682Z,4.70
2019-02-09T01:57:16.723Z,5.10
2019-02-09T01:58:16.677Z,6.70
2019-02-09T01:59:16.651Z,4.90
2019-02-09T02:00:16.637Z,4.10
2019-02-09T02:01:16.629Z,5.70
2019-02-09T02:02:16.623Z,6.20
2019-02-09T02:03:16.623Z,4.20
2019-02-09T02:04:16.593Z,4.30
2019-02-09T02:05:16.592Z,4.60
2019-02-09T02:06:16.568Z,4.40
2019-02-09T02:07:16.556Z,5.20
2019-02-09T02:08:16.557Z,5.40
2019-02-09T02:09:16.558Z,7.00
2019-02-09T02:10:16.524Z,6.60
2019-02-09T02:11:16.511Z,5.90
2019-02-09T02:12:16.505Z,6.10
2019-02-09T02:13:16.499Z,6.40
2019-02-09T02:14:16.483Z,5.70
2019-02-09T02:15:16.470Z,6.10
2019-02-09T02:16:16.465Z,5.10
2019-02-09T02:17:16.444Z,6.40
2019-02-09T02:18:16.442Z,5.50
2019-02-09T02:19:16.421Z,6.90
2019-02-09T02:20:16.409Z,5.70
2019-02-09T02:21:16.400Z,5.30
2019-02-09T02:22:16.396Z,4.60
2019-02-09T02:23:16.404Z,5.90
2019-02-09T02:24:16.364Z,6.70
2019-02-09T02:25:16.358Z,6.50
2019-02-09T02:26:16.344Z,6.30
2019-02-09T02:27:16.331Z,7.50
2019-02-09T02:28:16.334Z,5.70
2019-02-09T02:29:16.312Z,7.50
2019-02-09T02:30:22.530Z,7.50
2019-02-09T02:31:17.286Z,5.60
2019-02-09T02:32:16.282Z,6.40
2019-02-09T02:33:16.282Z,7.70
2019-02-09T02:34:16.250Z,7.30
2019-02-09T02:35:16.244Z,5.70
2019-02-09T02:36:16.231Z,7.80
2019-02-09T02:37:16.222Z,7.70
2019-02-09T02:38:16.215Z,8.80
2019-02-09T02:39:16.211Z,6.00
2019-02-09T02:40:16.184Z,7.00
2019-02-09T02:41:16.179Z,6.50
2019-02-09T02:42:16.168Z,6.60
2019-02-09T02:43:16.148Z,6.90
2019-02-09T02:44:16.149Z,7.00
2019-02-09T02:45:16.127Z,7.90
2019-02-09T02:46:16.115Z,8.10
2019-02-09T02:47:16.110Z,6.50
2019-02-09T02:48:16.094Z,6.80
2019-02-09T02:49:16.101Z,6.20
2019-02-09T02:50:16.072Z,7.50
2019-02-09T02:51:16.061Z,7.80
2019-02-09T02:52:16.050Z,7.30
2019-02-09T02:53:16.580Z,5.00
2019-02-09T02:54:16.035Z,5.90
2019-02-09T02:55:16.020Z,9.10
2019-02-09T02:56:16.002Z,7.30
2019-02-09T02:57:15.994Z,7.30
2019-02-09T02:58:15.982Z,6.40
2019-02-09T02:59:15.988Z,7.20
2019-02-09T03:00:15.957Z,7.00
2019-02-09T03:01:15.954Z,6.30
2019-02-09T03:02:15.945Z,7.60
2019-02-09T03:03:15.931Z,6.20
2019-02-09T03:04:15.922Z,5.90
2019-02-09T03:05:15.905Z,5.60
2019-02-09T03:06:15.894Z,5.90
2019-02-09T03:07:15.879Z,7.10
2019-02-09T03:08:15.875Z,5.40
2019-02-09T03:09:15.866Z,7.00
2019-02-09T03:10:15.848Z,8.10
2019-02-09T03:11:15.835Z,5.50
2019-02-09T03:12:15.822Z,6.20
2019-02-09T03:13:15.813Z,7.90
2019-02-09T03:14:15.833Z,6.90
2019-02-09T03:15:15.800Z,7.90
2019-02-09T03:16:15.778Z,5.50
2019-02-09T03:17:15.765Z,6.20
2019-02-09T03:18:15.757Z,5.60
2019-02-09T03:19:15.744Z,6.80
2019-02-09T03:20:15.747Z,9.30
2019-02-09T03:21:15.722Z,6.60
2019-02-09T03:22:15.712Z,6.20
2019-02-09T03:23:15.700Z,7.90
2019-02-09T03:24:15.692Z,6.40
2019-02-09T03:25:15.690Z,7.60
2019-02-09T03:26:15.669Z,6.50
2019-02-09T03:27:15.655Z,5.90
2019-02-09T03:28:15.646Z,6.50
2019-02-09T03:29:15.634Z,7.20
2019-02-09T03:30:15.650Z,6.60
2019-02-09T03:31:15.625Z,6.10
2019-02-09T03:32:15.628Z,5.20
2019-02-09T03:33:15.593Z,5.80
2019-02-09T03:34:15.578Z,7.10
2019-02-09T03:35:15.579Z,7.30
2019-02-09T03:36:15.558Z,6.90
2019-02-09T03:37:15.546Z,6.40
2019-02-09T03:38:15.531Z,6.30
2019-02-09T03:39:15.522Z,8.40
2019-02-09T03:40:15.523Z,7.00
2019-02-09T03:41:16.134Z,6.70
2019-02-09T03:42:15.487Z,7.00
2019-02-09T03:43:15.480Z,6.70
2019-02-09T03:44:15.470Z,6.20
2019-02-09T03:45:15.484Z,7.30
2019-02-09T03:46:15.442Z,8.30
2019-02-09T03:47:15.435Z,7.50
2019-02-09T03:48:15.419Z,7.60
2019-02-09T03:49:15.407Z,7.60
2019-02-09T03:50:15.396Z,7.00
2019-02-09T03:51:15.394Z,7.30
2019-02-09T03:52:15.370Z,8.10
2019-02-09T03:53:15.364Z,5.20
2019-02-09T03:54:15.353Z,6.90
2019-02-09T03:55:15.350Z,6.70
2019-02-09T03:56:15.347Z,6.30
2019-02-09T03:57:15.315Z,7.20
2019-02-09T03:58:15.305Z,6.20
2019-02-09T03:59:15.299Z,5.30
2019-02-09T04:00:15.304Z,5.70
2019-02-09T04:01:15.279Z,7.30
2019-02-09T04:02:15.262Z,6.40
2019-02-09T04:03:15.248Z,5.50
2019-02-09T04:04:15.240Z,7.00
2019-02-09T04:05:15.227Z,6.90
2019-02-09T04:06:15.232Z,5.50
2019-02-09T04:07:15.205Z,5.30
2019-02-09T04:08:15.191Z,6.30
2019-02-09T04:09:15.182Z,6.40
2019-02-09T04:10:15.176Z,7.10
2019-02-09T04:11:15.177Z,6.00
2019-02-09T04:12:15.152Z,6.60
2019-02-09T04:13:15.143Z,6.30
2019-02-09T04:14:15.126Z,6.30
2019-02-09T04:15:15.130Z,6.40
2019-02-09T04:16:15.113Z,5.20
2019-02-09T04:17:15.092Z,6.30
2019-02-09T04:18:15.086Z,5.70
2019-02-09T04:19:15.082Z,6.10
2019-02-09T04:20:15.057Z,4.80
2019-02-09T04:21:15.067Z,6.10
2019-02-09T04:22:15.040Z,5.50
2019-02-09T04:23:15.061Z,5.90
2019-02-09T04:24:15.013Z,5.50
2019-02-09T04:25:15.004Z,6.70
2019-02-09T04:26:15.004Z,6.60
2019-02-09T04:27:14.983Z,5.50
2019-02-09T04:28:14.983Z,4.50
2019-02-09T04:29:14.956Z,6.70
2019-02-09T04:30:14.950Z,4.40
2019-02-09T04:31:14.947Z,4.60
2019-02-09T04:32:14.925Z,5.40
2019-02-09T04:33:14.919Z,6.20
2019-02-09T04:34:14.936Z,5.80
2019-02-09T04:35:14.896Z,6.00
2019-02-09T04:36:14.881Z,4.70
2019-02-09T04:37:14.878Z,4.30
2019-02-09T04:38:14.861Z,4.50
2019-02-09T04:39:14.852Z,4.60
2019-02-09T04:40:14.840Z,4.60
2019-02-09T04:41:14.829Z,6.40
2019-02-09T04:42:14.833Z,5.50
2019-02-09T04:43:14.808Z,5.20
2019-02-09T04:44:14.793Z,5.10
2019-02-09T04:45:14.777Z,5.70
2019-02-09T04:46:14.769Z,5.60
2019-02-09T04:47:14.766Z,5.20
2019-02-09T04:48:14.751Z,5.10
2019-02-09T04:49:14.732Z,5.20
2019-02-09T04:50:14.727Z,5.10
2019-02-09T04:51:14.712Z,5.10
2019-02-09T04:52:14.708Z,6.10
2019-02-09T04:53:14.688Z,6.10
2019-02-09T04:54:14.677Z,4.50
2019-02-09T04:55:14.668Z,4.80
2019-02-09T04:56:14.655Z,5.60
2019-02-09T04:57:14.657Z,5.60
2019-02-09T04:58:14.635Z,4.80
2019-02-09T04:59:14.620Z,5.10
2019-02-09T05:00:14.613Z,5.00
2019-02-09T05:01:14.600Z,4.70
2019-02-09T05:02:14.604Z,5.70
2019-02-09T05:03:14.580Z,4.10
2019-02-09T05:04:14.567Z,5.70
2019-02-09T05:05:14.552Z,5.20
2019-02-09T05:06:14.546Z,4.50
2019-02-09T05:07:14.549Z,4.40
2019-02-09T05:08:14.522Z,5.30
2019-02-09T05:09:14.529Z,4.80
2019-02-09T05:10:14.503Z,5.40
2019-02-09T05:11:14.486Z,3.70
2019-02-09T05:12:14.480Z,4.30
2019-02-09T05:13:14.475Z,6.50
2019-02-09T05:14:14.450Z,4.60
2019-02-09T05:15:14.448Z,4.80
2019-02-09T05:16:14.428Z,4.30
2019-02-09T05:17:14.423Z,3.80
2019-02-09T05:18:14.417Z,4.60
2019-02-09T05:19:14.397Z,4.40
2019-02-09T05:20:14.383Z,5.60
2019-02-09T05:21:14.371Z,4.70
2019-02-09T05:22:14.363Z,3.80
2019-02-09T05:23:14.364Z,4.70
2019-02-09T05:24:14.336Z,5.30
2019-02-09T05:25:14.335Z,4.00
2019-02-09T05:26:14.316Z,5.60
2019-02-09T05:27:14.305Z,4.60
2019-02-09T05:28:14.302Z,4.00
2019-02-09T05:29:14.281Z,4.20
2019-02-09T05:30:14.269Z,4.10
2019-02-09T05:31:22.633Z,5.10
2019-02-09T05:32:15.244Z,5.40
2019-02-09T05:33:14.244Z,4.00
2019-02-09T05:34:14.226Z,6.00
2019-02-09T05:35:14.216Z,4.20
2019-02-09T05:36:14.205Z,5.20
2019-02-09T05:37:14.190Z,4.90
2019-02-09T05:38:14.188Z,4.70
2019-02-09T05:39:14.167Z,5.00
2019-02-09T05:40:14.160Z,3.90
2019-02-09T05:41:14.144Z,5.60
2019-02-09T05:42:14.134Z,4.50
2019-02-09T05:43:14.131Z,5.30
2019-02-09T05:44:14.110Z,4.30
2019-02-09T05:45:14.101Z,3.70
2019-02-09T05:46:14.093Z,5.50
2019-02-09T05:47:14.083Z,3.70
2019-02-09T05:48:14.078Z,4.90
2019-02-09T05:49:14.055Z,5.00
2019-02-09T05:50:14.042Z,4.30
2019-02-09T05:51:14.034Z,4.90
2019-02-09T05:52:14.020Z,4.60
2019-02-09T05:53:14.021Z,4.10
2019-02-09T05:54:14.001Z,3.60
2019-02-09T05:55:13.990Z,3.70
2019-02-09T05:56:13.979Z,6.10
2019-02-09T05:57:13.965Z,3.80
2019-02-09T05:58:13.967Z,4.70
2019-02-09T05:59:13.942Z,4.50
2019-02-09T06:00:13.935Z,5.30
2019-02-09T06:01:13.922Z,6.40
2019-02-09T06:02:13.912Z,4.40
2019-02-09T06:03:13.928Z,2.90
2019-02-09T06:04:13.889Z,2.90
2019-02-09T06:05:13.877Z,7.70
2019-02-09T06:06:13.863Z,3.90
2019-02-09T06:07:13.853Z,3.60
2019-02-09T06:08:13.849Z,4.20
2019-02-09T06:09:13.844Z,3.80
2019-02-09T06:10:13.817Z,4.10
2019-02-09T06:11:13.808Z,3.70
2019-02-09T06:12:13.795Z,4.40
2019-02-09T06:13:13.788Z,2.80
2019-02-09T06:14:13.790Z,4.20
2019-02-09T06:15:13.784Z,2.90
2019-02-09T06:16:13.751Z,4.70
2019-02-09T06:17:13.740Z,4.80
2019-02-09T06:18:13.729Z,3.50
2019-02-09T06:19:13.726Z,4.20
2019-02-09T06:20:13.713Z,3.90
2019-02-09T06:21:13.694Z,4.90
2019-02-09T06:22:13.683Z,3.90
2019-02-09T06:23:13.676Z,3.80
2019-02-09T06:24:13.671Z,4.80
2019-02-09T06:25:13.649Z,4.90
2019-02-09T06:26:13.637Z,3.40
2019-02-09T06:27:13.632Z,3.80
2019-02-09T06:28:13.615Z,4.20
2019-02-09T06:29:13.618Z,4.70
2019-02-09T06:30:13.596Z,4.10
2019-02-09T06:31:13.583Z,4.60
2019-02-09T06:32:13.572Z,3.20
2019-02-09T06:33:13.560Z,4.30
2019-02-09T06:34:13.568Z,3.00
2019-02-09T06:35:13.544Z,3.50
2019-02-09T06:36:13.530Z,3.50
2019-02-09T06:37:13.519Z,4.50
2019-02-09T06:38:13.504Z,3.40
2019-02-09T06:39:13.508Z,4.30
2019-02-09T06:40:13.493Z,3.10
2019-02-09T06:41:13.473Z,3.90
2019-02-09T06:42:13.458Z,3.30
2019-02-09T06:43:13.448Z,5.10
2019-02-09T06:44:13.447Z,3.70
2019-02-09T06:45:13.424Z,4.20
2019-02-09T06:46:13.415Z,2.80
2019-02-09T06:47:13.412Z,5.20
2019-02-09T06:48:13.393Z,4.00
2019-02-09T06:49:13.395Z,4.80
2019-02-09T06:50:13.372Z,4.70
2019-02-09T06:51:13.355Z,3.40
2019-02-09T06:52:13.352Z,3.90
2019-02-09T06:53:13.379Z,3.10
2019-02-09T06:54:13.341Z,3.90
2019-02-09T06:55:13.311Z,3.00
2019-02-09T06:56:13.314Z,5.10
2019-02-09T06:57:13.292Z,4.60
2019-02-09T06:58:13.282Z,3.50
2019-02-09T06:59:13.267Z,5.40
2019-02-09T07:00:13.266Z,3.50
2019-02-09T07:01:13.249Z,3.50
2019-02-09T07:02:13.233Z,4.10
2019-02-09T07:03:13.230Z,3.80
2019-02-09T07:04:13.215Z,4.50
2019-02-09T07:05:13.210Z,3.70
2019-02-09T07:06:13.195Z,4.30
2019-02-09T07:07:13.179Z,3.80
2019-02-09T07:08:13.169Z,4.50
2019-02-09T07:09:13.161Z,4.20
2019-02-09T07:10:13.160Z,3.70
2019-02-09T07:11:13.130Z,4.80
2019-02-09T07:12:13.119Z,5.20
2019-02-09T07:13:13.109Z,4.70
2019-02-09T07:14:13.101Z,4.80
2019-02-09T07:15:13.098Z,4.80
2019-02-09T07:16:13.087Z,5.30
2019-02-09T07:17:13.065Z,3.60
2019-02-09T07:18:13.052Z,3.60
2019-02-09T07:19:13.041Z,5.20
2019-02-09T07:20:13.050Z,4.00
2019-02-09T07:21:13.021Z,4.10
2019-02-09T07:22:13.015Z,4.20
2019-02-09T07:23:13.000Z,4.00
2019-02-09T07:24:12.986Z,5.00
2019-02-09T07:25:12.985Z,5.10
2019-02-09T07:26:12.972Z,5.10
2019-02-09T07:27:12.950Z,6.20
2019-02-09T07:28:12.943Z,8.00
2019-02-09T07:29:12.930Z,3.30
2019-02-09T07:30:12.926Z,5.20
2019-02-09T07:31:12.908Z,3.60
2019-02-09T07:32:12.895Z,6.80
2019-02-09T07:33:12.883Z,5.00
2019-02-09T07:34:12.877Z,5.30
2019-02-09T07:35:12.873Z,5.70
2019-02-09T07:36:12.850Z,5.20
2019-02-09T07:37:12.841Z,5.30
2019-02-09T07:38:12.835Z,5.00
2019-02-09T07:39:12.819Z,6.80
2019-02-09T07:40:12.823Z,5.00
2019-02-09T07:41:12.800Z,5.90
2019-02-09T07:42:12.782Z,6.20
2019-02-09T07:43:12.772Z,5.00
2019-02-09T07:44:12.761Z,5.00
2019-02-09T07:45:12.764Z,4.90
2019-02-09T07:46:12.738Z,5.60
2019-02-09T07:47:12.731Z,5.10
2019-02-09T07:48:12.720Z,6.80
2019-02-09T07:49:12.704Z,5.30
2019-02-09T07:50:13.230Z,5.50
2019-02-09T07:51:12.686Z,4.90
2019-02-09T07:52:12.672Z,5.30
2019-02-09T07:53:12.662Z,5.80
2019-02-09T07:54:12.653Z,5.70
2019-02-09T07:55:12.636Z,4.40
2019-02-09T07:56:12.639Z,4.40
2019-02-09T07:57:12.618Z,4.60
2019-02-09T07:58:12.603Z,5.30
2019-02-09T07:59:12.592Z,3.90
2019-02-09T08:00:12.580Z,5.30
2019-02-09T08:01:12.579Z,4.30
2019-02-09T08:02:12.558Z,4.10
2019-02-09T08:03:12.547Z,4.80
2019-02-09T08:04:12.535Z,3.00
2019-02-09T08:05:12.530Z,4.40
2019-02-09T08:06:12.524Z,5.10
2019-02-09T08:07:12.501Z,3.10
2019-02-09T08:08:12.492Z,3.10
2019-02-09T08:09:12.479Z,3.90
2019-02-09T08:10:12.467Z,3.40
2019-02-09T08:11:12.478Z,3.20
2019-02-09T08:12:12.445Z,3.20
2019-02-09T08:13:12.447Z,2.50
2019-02-09T08:14:12.433Z,3.90
2019-02-09T08:15:12.411Z,3.60
2019-02-09T08:16:12.411Z,3.00
2019-02-09T08:17:12.390Z,2.60
2019-02-09T08:18:12.378Z,3.00
2019-02-09T08:19:12.368Z,4.40
2019-02-09T08:20:12.355Z,3.00
2019-02-09T08:21:12.354Z,3.10
2019-02-09T08:22:12.332Z,3.70
2019-02-09T08:23:12.325Z,3.00
2019-02-09T08:24:12.316Z,3.30
2019-02-09T08:25:12.299Z,3.30
2019-02-09T08:26:12.300Z,2.70
2019-02-09T08:27:12.302Z,3.50
2019-02-09T08:28:12.263Z,2.90
2019-02-09T08:29:12.255Z,3.40
2019-02-09T08:30:12.247Z,3.50
2019-02-09T08:31:12.244Z,3.40
2019-02-09T08:32:13.067Z,3.60
2019-02-09T08:33:12.209Z,3.70
2019-02-09T08:34:12.195Z,3.90
2019-02-09T08:35:12.185Z,4.90
2019-02-09T08:36:12.189Z,4.50
2019-02-09T08:37:12.164Z,4.40
2019-02-09T08:38:12.152Z,4.30
2019-02-09T08:39:12.144Z,2.70
2019-02-09T08:40:12.130Z,4.10
2019-02-09T08:41:12.126Z,4.90
2019-02-09T08:42:12.107Z,4.30
2019-02-09T08:43:12.102Z,4.30
2019-02-09T08:44:12.099Z,4.50
2019-02-09T08:45:12.072Z,3.20
2019-02-09T08:46:12.105Z,3.50
2019-02-09T08:47:12.054Z,4.70
2019-02-09T08:48:12.051Z,4.20
2019-02-09T08:49:12.030Z,4.10
2019-02-09T08:50:12.016Z,4.20
2019-02-09T08:51:12.005Z,3.90
2019-02-09T08:52:12.006Z,5.10
2019-02-09T08:53:11.992Z,4.90
2019-02-09T08:54:11.971Z,3.70
2019-02-09T08:55:11.961Z,3.90
2019-02-09T08:56:11.948Z,5.00
2019-02-09T08:57:11.952Z,5.00
2019-02-09T08:58:11.926Z,4.20
2019-02-09T08:59:11.920Z,5.00
2019-02-09T09:00:11.904Z,5.00
2019-02-09T09:01:11.891Z,5.70
2019-02-09T09:02:11.890Z,4.70
2019-02-09T09:03:11.869Z,4.70
2019-02-09T09:04:11.858Z,6.40
2019-02-09T09:05:11.856Z,4.70
2019-02-09T09:06:11.835Z,6.80
2019-02-09T09:07:11.842Z,5.30
2019-02-09T09:08:11.819Z,3.80
2019-02-09T09:09:11.803Z,4.40
2019-02-09T09:10:11.792Z,5.00
2019-02-09T09:11:11.784Z,6.30
2019-02-09T09:12:11.803Z,5.70
2019-02-09T09:13:11.766Z,4.90
2019-02-09T09:14:11.751Z,5.60
2019-02-09T09:15:11.734Z,4.60
2019-02-09T09:16:11.724Z,8.00
2019-02-09T09:17:11.736Z,5.50
2019-02-09T09:18:11.706Z,7.40
2019-02-09T09:19:11.689Z,7.20
2019-02-09T09:20:11.680Z,6.50
2019-02-09T09:21:11.668Z,5.30
2019-02-09T09:22:11.677Z,7.10
2019-02-09T09:23:11.648Z,7.30
2019-02-09T09:24:11.635Z,5.20
2019-02-09T09:25:11.622Z,7.80
2019-02-09T09:26:11.614Z,6.70
2019-02-09T09:27:11.600Z,6.20
2019-02-09T09:28:11.604Z,7.60
2019-02-09T09:29:11.577Z,6.40
2019-02-09T09:30:11.570Z,7.40
2019-02-09T09:31:11.557Z,8.20
2019-02-09T09:32:11.549Z,6.00
2019-02-09T09:33:11.558Z,9.90
2019-02-09T09:34:11.522Z,8.60
2019-02-09T09:35:11.509Z,6.90
2019-02-09T09:36:11.498Z,7.30
2019-02-09T09:37:11.488Z,5.90
2019-02-09T09:38:11.490Z,7.90
2019-02-09T09:39:11.464Z,6.10
2019-02-09T09:40:11.458Z,7.40
2019-02-09T09:41:11.448Z,7.10
2019-02-09T09:42:11.432Z,6.50
2019-02-09T09:43:11.429Z,7.60
2019-02-09T09:44:11.412Z,6.90
2019-02-09T09:45:11.398Z,7.40
2019-02-09T09:46:11.387Z,8.10
2019-02-09T09:47:11.376Z,8.60
2019-02-09T09:48:11.380Z,7.90
2019-02-09T09:49:11.358Z,6.70
2019-02-09T09:50:11.350Z,5.90
2019-02-09T09:51:11.341Z,9.00
2019-02-09T09:52:11.320Z,9.70
2019-02-09T09:53:11.327Z,6.30
2019-02-09T09:54:11.299Z,7.40
2019-02-09T09:55:11.286Z,7.30
2019-02-09T09:56:11.276Z,8.70
2019-02-09T09:57:11.264Z,6.30
2019-02-09T09:58:11.286Z,6.60
2019-02-09T09:59:11.245Z,7.70
2019-02-09T10:00:11.233Z,8.60
2019-02-09T10:01:11.219Z,8.10
2019-02-09T10:02:11.211Z,9.10
2019-02-09T10:03:11.209Z,7.60
2019-02-09T10:04:11.189Z,7.40
2019-02-09T10:05:11.174Z,6.30
2019-02-09T10:06:11.164Z,8.90
2019-02-09T10:07:11.155Z,9.50
2019-02-09T10:08:11.169Z,6.20
2019-02-09T10:09:11.129Z,7.20
2019-02-09T10:10:11.117Z,9.40
2019-02-09T10:11:11.106Z,7.50
2019-02-09T10:12:11.097Z,7.60
2019-02-09T10:13:11.097Z,8.70
2019-02-09T10:14:11.083Z,7.20
2019-02-09T10:15:11.065Z,9.10
2019-02-09T10:16:11.054Z,7.60
2019-02-09T10:17:11.098Z,9.50
2019-02-09T10:18:11.031Z,14.00
2019-02-09T10:19:11.027Z,10.50
2019-02-09T10:20:11.005Z,6.70
2019-02-09T10:21:10.993Z,9.30
2019-02-09T10:22:10.983Z,8.00
2019-02-09T10:23:10.975Z,8.50
2019-02-09T10:24:10.974Z,7.60
2019-02-09T10:25:10.951Z,8.30
2019-02-09T10:26:10.938Z,7.30
2019-02-09T10:27:10.929Z,7.80
2019-02-09T10:28:10.914Z,6.70
2019-02-09T10:29:10.914Z,8.10
2019-02-09T10:30:10.895Z,6.40
2019-02-09T10:31:10.885Z,11.00
2019-02-09T10:32:10.870Z,8.90
2019-02-09T10:33:10.860Z,8.00
2019-02-09T10:34:10.855Z,7.80
2019-02-09T10:35:10.848Z,7.40
2019-02-09T10:36:10.823Z,8.00
2019-02-09T10:37:10.812Z,9.10
2019-02-09T10:38:10.803Z,8.00
2019-02-09T10:39:10.802Z,6.60
2019-02-09T10:40:10.788Z,6.40
2019-02-09T10:41:10.770Z,9.30
2019-02-09T10:42:10.755Z,9.40
2019-02-09T10:43:10.754Z,8.90
2019-02-09T10:44:10.755Z,10.70
2019-02-09T10:45:10.721Z,8.50
2019-02-09T10:46:10.709Z,9.80
2019-02-09T10:47:10.696Z,6.80
2019-02-09T10:48:10.689Z,7.60
2019-02-09T10:49:10.686Z,6.60
2019-02-09T10:50:10.667Z,6.10
2019-02-09T10:51:10.652Z,6.10
2019-02-09T10:52:10.648Z,9.00
2019-02-09T10:53:10.631Z,5.80
2019-02-09T10:54:10.633Z,6.00
2019-02-09T10:55:10.632Z,8.90
2019-02-09T10:56:10.596Z,7.10
2019-02-09T10:57:10.587Z,6.90
2019-02-09T10:58:10.579Z,10.90
2019-02-09T10:59:10.594Z,5.90
2019-02-09T11:00:10.562Z,6.90
2019-02-09T11:01:10.538Z,8.30
2019-02-09T11:02:10.534Z,8.40
2019-02-09T11:03:10.523Z,7.20
2019-02-09T11:04:10.504Z,7.40
2019-02-09T11:05:10.507Z,5.80
2019-02-09T11:06:10.494Z,7.10
2019-02-09T11:07:10.469Z,6.50
2019-02-09T11:08:10.460Z,6.10
2019-02-09T11:09:10.466Z,6.10
2019-02-09T11:10:10.449Z,6.80
2019-02-09T11:11:10.427Z,6.60
2019-02-09T11:12:10.415Z,6.80
2019-02-09T11:13:10.411Z,8.00
2019-02-09T11:14:10.394Z,8.10
2019-02-09T11:15:10.475Z,7.00
2019-02-09T11:16:10.373Z,6.60
2019-02-09T11:17:10.358Z,6.50
2019-02-09T11:18:10.356Z,5.60
2019-02-09T11:19:10.342Z,5.70
2019-02-09T11:20:10.336Z,7.40
2019-02-09T11:21:10.312Z,7.90
2019-02-09T11:22:10.300Z,5.60
2019-02-09T11:23:10.292Z,7.10
2019-02-09T11:24:10.278Z,6.70
2019-02-09T11:25:10.280Z,6.70
2019-02-09T11:26:10.314Z,7.50
2019-02-09T11:27:10.247Z,8.00
2019-02-09T11:28:10.238Z,7.00
2019-02-09T11:29:10.223Z,5.70
2019-02-09T11:30:10.224Z,6.20
2019-02-09T11:31:10.280Z,6.90
2019-02-09T11:32:10.188Z,4.80
2019-02-09T11:33:10.177Z,8.20
2019-02-09T11:34:10.166Z,6.60
2019-02-09T11:35:10.171Z,5.30
2019-02-09T11:36:10.154Z,7.70
2019-02-09T11:37:10.153Z,6.70
2019-02-09T11:38:10.124Z,5.80
2019-02-09T11:39:10.112Z,6.70
2019-02-09T11:40:10.152Z,8.40
2019-02-09T11:41:10.087Z,6.90
2019-02-09T11:42:10.074Z,6.30
2019-02-09T11:43:10.064Z,7.00
2019-02-09T11:44:10.054Z,8.00
2019-02-09T11:45:10.043Z,5.80
2019-02-09T11:46:10.039Z,8.40
2019-02-09T11:47:10.016Z,6.90
2019-02-09T11:48:10.006Z,5.80
2019-02-09T11:49:09.994Z,6.80
2019-02-09T11:50:09.993Z,6.80
2019-02-09T11:51:09.996Z,7.60
2019-02-09T11:52:09.961Z,7.10
2019-02-09T11:53:09.954Z,4.60
2019-02-09T11:54:09.940Z,5.70
2019-02-09T11:55:09.930Z,7.00
2019-02-09T11:56:09.927Z,6.90
2019-02-09T11:57:09.906Z,5.40
2019-02-09T11:58:09.893Z,7.60
2019-02-09T11:59:09.883Z,7.40
2019-02-09T12:00:09.877Z,6.50
2019-02-09T12:01:09.870Z,5.80
2019-02-09T12:02:09.850Z,5.40
2019-02-09T12:03:14.915Z,8.30
2019-02-09T12:04:10.828Z,6.10
2019-02-09T12:05:09.814Z,7.80
2019-02-09T12:06:09.814Z,7.00
2019-02-09T12:07:09.796Z,9.40
2019-02-09T12:08:09.779Z,8.20
2019-02-09T12:09:09.775Z,7.30
2019-02-09T12:10:09.756Z,8.30
2019-02-09T12:11:09.759Z,7.10
2019-02-09T12:12:09.740Z,8.50
2019-02-09T12:13:09.725Z,6.50
2019-02-09T12:14:09.715Z,8.20
2019-02-09T12:15:09.707Z,8.80
2019-02-09T12:16:09.700Z,9.30
2019-02-09T12:17:09.680Z,9.20
2019-02-09T12:18:09.672Z,10.80
2019-02-09T12:19:09.661Z,8.60
2019-02-09T12:20:09.652Z,9.00
2019-02-09T12:21:09.648Z,7.30
2019-02-09T12:22:09.627Z,9.70
2019-02-09T12:23:09.615Z,7.70
2019-02-09T12:24:09.600Z,7.40
2019-02-09T12:25:09.589Z,8.60
2019-02-09T12:26:09.576Z,7.50
2019-02-09T12:27:09.583Z,8.40
2019-02-09T12:28:09.555Z,7.80
2019-02-09T12:29:09.549Z,9.50
2019-02-09T12:30:09.535Z,10.50
2019-02-09T12:31:09.521Z,8.70
2019-02-09T12:32:09.520Z,10.60
2019-02-09T12:33:09.497Z,9.30
2019-02-09T12:34:09.486Z,9.60
2019-02-09T12:35:09.481Z,9.40
2019-02-09T12:36:09.465Z,9.40
2019-02-09T12:37:09.462Z,10.00
2019-02-09T12:38:09.445Z,7.90
2019-02-09T12:39:09.445Z,9.90
2019-02-09T12:40:09.424Z,6.90
2019-02-09T12:41:09.409Z,8.60
2019-02-09T12:42:09.411Z,7.70
2019-02-09T12:43:09.389Z,7.30
2019-02-09T12:44:09.375Z,5.40
2019-02-09T12:45:09.371Z,4.80
2019-02-09T12:46:09.350Z,5.10
2019-02-09T12:47:09.354Z,6.10
2019-02-09T12:48:09.332Z,5.20
2019-02-09T12:49:09.321Z,4.00
2019-02-09T12:50:09.305Z,4.00
2019-02-09T12:51:09.295Z,5.20
2019-02-09T12:52:09.296Z,4.00
2019-02-09T12:53:09.276Z,4.60
2019-02-09T12:54:09.260Z,3.50
2019-02-09T12:55:09.250Z,4.40
2019-02-09T12:56:09.241Z,6.50
2019-02-09T12:57:09.265Z,4.60
2019-02-09T12:58:09.216Z,3.20
2019-02-09T12:59:14.727Z,4.40
2019-02-09T13:00:10.200Z,4.30
2019-02-09T13:01:09.183Z,3.80
2019-02-09T13:02:09.169Z,5.30
2019-02-09T13:03:09.173Z,5.60
2019-02-09T13:04:09.147Z,6.40
2019-02-09T13:05:10.398Z,6.80
2019-02-09T13:06:09.129Z,4.50
2019-02-09T13:07:09.114Z,7.10
2019-02-09T13:08:09.115Z,4.50
2019-02-09T13:09:09.091Z,8.70
2019-02-09T13:10:09.080Z,8.30
2019-02-09T13:11:09.077Z,7.20
2019-02-09T13:12:09.070Z,6.50
2019-02-09T13:13:09.058Z,7.90
2019-02-09T13:14:09.039Z,8.50
2019-02-09T13:15:09.024Z,7.40
2019-02-09T13:16:09.011Z,6.70
2019-02-09T13:17:09.003Z,5.70
2019-02-09T13:18:09.003Z,9.60